Time;durP1;ratioP1;P1;durP2;ratioP2;P2;SDS_P1;SDS_P2;PMS_P1;PMS_P2;Temp;Humidity;BMP_temperature;BMP_pressure;BME280_temperature;BME280_humidity;BME280_pressure;Samples;Min_cycle;Max_cycle;Signal;HPM_P1;HPM_P2
2020/12/21 00:01:45;;;;;;;132.98;92.75;;;;;;;;;;5091416;28;20047;-75
2020/12/21 00:04:49;;;;;;;124.13;90.15;;;;;;;;;;5091644;28;20038;-75
2020/12/21 00:07:53;;;;;;;133.70;90.20;;;;;;;;;;5091472;28;20114;-75
2020/12/21 00:10:58;;;;;;;121.97;88.72;;;;;;;;;;5091475;28;20498;-75
2020/12/21 00:14:04;;;;;;;123.50;88.03;;;;;;;;;;5078958;28;20051;-76
2020/12/21 00:17:08;;;;;;;122.95;86.72;;;;;;;;;;5091379;28;20404;-75
2020/12/21 00:20:12;;;;;;;112.47;82.68;;;;;;;;;;5091340;28;20947;-75
2020/12/21 00:23:17;;;;;;;116.13;85.68;;;;;;;;;;5091520;28;20407;-75
2020/12/21 00:26:21;;;;;;;106.00;82.32;;;;;;;;;;5091322;28;20043;-75
2020/12/21 00:29:25;;;;;;;114.47;78.70;;;;;;;;;;5091113;28;20593;-75
2020/12/21 00:32:32;;;;;;;106.85;76.93;;;;;;;;;;5091215;28;20043;-76
2020/12/21 00:35:36;;;;;;;116.30;77.60;;;;;;;;;;5090893;28;20051;-75
2020/12/21 00:38:40;;;;;;;104.18;74.45;;;;;;;;;;5090951;28;20047;-75
2020/12/21 00:41:44;;;;;;;107.60;74.80;;;;;;;;;;5091026;28;20494;-75
2020/12/21 00:44:49;;;;;;;108.75;74.97;;;;;;;;;;5090822;28;20039;-75
2020/12/21 00:47:53;;;;;;;110.78;76.68;;;;;;;;;;5090577;28;20039;-76
2020/12/21 00:50:58;;;;;;;110.68;71.82;;;;;;;;;;5090652;28;20043;-75
2020/12/21 00:54:02;;;;;;;104.38;72.28;;;;;;;;;;5078158;28;20040;-75
2020/12/21 00:57:09;;;;;;;109.90;75.00;;;;;;;;;;5090740;28;20059;-74
2020/12/21 01:00:13;;;;;;;108.80;73.43;;;;;;;;;;5090965;28;20039;-74
2020/12/21 01:03:18;;;;;;;107.32;71.32;;;;;;;;;;5090515;28;20054;-74
2020/12/21 01:06:22;;;;;;;103.93;72.45;;;;;;;;;;5090951;28;20062;-74
2020/12/21 01:09:27;;;;;;;98.65;70.25;;;;;;;;;;5091100;28;20411;-74
2020/12/21 01:12:31;;;;;;;93.05;64.78;;;;;;;;;;5094199;28;20047;-74
2020/12/21 01:15:35;;;;;;;101.50;68.30;;;;;;;;;;5094455;28;20051;-74
2020/12/21 01:18:40;;;;;;;93.53;66.55;;;;;;;;;;5094479;28;20043;-74
2020/12/21 01:21:44;;;;;;;100.95;69.22;;;;;;;;;;5094175;28;20514;-75
2020/12/21 01:24:49;;;;;;;96.65;65.88;;;;;;;;;;5093971;28;20035;-75
2020/12/21 01:27:53;;;;;;;100.78;68.70;;;;;;;;;;5093987;28;20039;-74
2020/12/21 01:30:57;;;;;;;96.15;65.78;;;;;;;;;;5094146;28;20047;-74
2020/12/21 01:34:01;;;;;;;99.20;66.90;;;;;;;;;;5092878;28;20047;-74
2020/12/21 01:37:06;;;;;;;103.97;70.00;;;;;;;;;;5093800;28;20075;-74
2020/12/21 01:40:10;;;;;;;88.72;62.28;;;;;;;;;;5094301;28;20051;-74
2020/12/21 01:43:15;;;;;;;89.22;60.97;;;;;;;;;;5094089;28;20047;-74
2020/12/21 01:46:19;;;;;;;89.68;62.00;;;;;;;;;;5094137;28;20506;-74
2020/12/21 01:49:24;;;;;;;89.25;60.83;;;;;;;;;;5093718;28;20395;-75
2020/12/21 01:52:28;;;;;;;89.18;60.92;;;;;;;;;;5093690;28;20055;-74
2020/12/21 01:55:34;;;;;;;89.53;62.53;;;;;;;;;;5093823;28;20110;-74
2020/12/21 01:58:39;;;;;;;89.32;59.20;;;;;;;;;;5093557;28;20051;-74
2020/12/21 02:01:43;;;;;;;88.70;61.45;;;;;;;;;;5093763;28;20035;-74
2020/12/21 02:04:47;;;;;;;84.45;58.58;;;;;;;;;;5081067;28;20055;-74
2020/12/21 02:07:52;;;;;;;76.85;55.15;;;;;;;;;;5093512;28;20051;-74
2020/12/21 02:10:56;;;;;;;81.97;55.67;;;;;;;;;;5093356;28;20540;-74
2020/12/21 02:14:00;;;;;;;79.78;54.40;;;;;;;;;;5093286;28;20043;-74
2020/12/21 02:17:05;;;;;;;77.97;53.85;;;;;;;;;;5093202;28;20054;-74
2020/12/21 02:20:09;;;;;;;84.40;55.80;;;;;;;;;;5093136;28;20066;-74
2020/12/21 02:23:14;;;;;;;83.38;55.72;;;;;;;;;;5093360;28;20118;-74
2020/12/21 02:26:18;;;;;;;79.90;55.53;;;;;;;;;;5093799;28;20035;-74
2020/12/21 02:29:22;;;;;;;80.22;56.03;;;;;;;;;;5093293;28;20051;-74
2020/12/21 02:32:27;;;;;;;78.18;53.00;;;;;;;;;;5093194;28;20043;-74
2020/12/21 02:35:33;;;;;;;73.10;52.03;;;;;;;;;;5092992;28;20046;-74
2020/12/21 02:38:37;;;;;;;73.55;49.60;;;;;;;;;;5093175;28;20055;-74
2020/12/21 02:41:41;;;;;;;79.25;53.10;;;;;;;;;;5092976;28;20035;-74
2020/12/21 02:44:46;;;;;;;73.85;50.42;;;;;;;;;;5092938;28;20059;-74
2020/12/21 02:47:50;;;;;;;73.32;51.90;;;;;;;;;;5092890;28;20506;-74
2020/12/21 02:50:54;;;;;;;76.18;51.75;;;;;;;;;;5092844;28;20039;-74
2020/12/21 02:53:58;;;;;;;77.05;51.00;;;;;;;;;;5093243;28;20491;-74
2020/12/21 02:57:03;;;;;;;70.40;49.97;;;;;;;;;;5092235;28;20046;-74
2020/12/21 03:00:10;;;;;;;72.78;49.75;;;;;;;;;;5092574;28;20526;-74
2020/12/21 03:03:15;;;;;;;72.63;50.28;;;;;;;;;;5092613;28;20325;-74
2020/12/21 03:06:19;;;;;;;72.45;49.53;;;;;;;;;;5092438;28;20043;-74
2020/12/21 03:09:23;;;;;;;71.70;47.67;;;;;;;;;;5092256;28;20047;-74
2020/12/21 03:12:28;;;;;;;69.13;46.78;;;;;;;;;;5092392;28;20039;-74
2020/12/21 03:15:32;;;;;;;66.72;45.22;;;;;;;;;;5092207;28;20047;-74
2020/12/21 03:18:37;;;;;;;69.53;46.67;;;;;;;;;;5092169;28;20518;-74
2020/12/21 03:21:41;;;;;;;68.00;46.53;;;;;;;;;;5091911;28;20059;-74
2020/12/21 03:24:46;;;;;;;71.22;46.67;;;;;;;;;;5092221;28;20055;-74
2020/12/21 03:27:51;;;;;;;76.55;51.15;;;;;;;;;;5092124;28;20047;-74
2020/12/21 03:30:55;;;;;;;81.20;53.38;;;;;;;;;;5092067;28;20043;-75
2020/12/21 03:33:59;;;;;;;78.50;51.50;;;;;;;;;;5091467;28;20490;-75
2020/12/21 03:37:04;;;;;;;67.80;45.83;;;;;;;;;;5079265;28;20047;-75
2020/12/21 03:40:08;;;;;;;70.35;46.15;;;;;;;;;;5091859;28;20050;-75
2020/12/21 03:43:13;;;;;;;66.13;45.78;;;;;;;;;;5092272;28;20376;-74
2020/12/21 03:46:18;;;;;;;66.10;44.92;;;;;;;;;;5091855;28;20043;-74
2020/12/21 03:49:22;;;;;;;65.10;44.95;;;;;;;;;;5091793;28;20047;-75
2020/12/21 03:52:27;;;;;;;77.53;50.22;;;;;;;;;;5091759;28;20046;-74
2020/12/21 03:55:31;;;;;;;80.68;52.58;;;;;;;;;;5091472;28;20050;-74
2020/12/21 03:58:35;;;;;;;86.25;55.20;;;;;;;;;;5091168;28;20047;-73
2020/12/21 04:01:40;;;;;;;80.93;54.22;;;;;;;;;;5091512;28;20039;-73
2020/12/21 04:04:44;;;;;;;81.30;54.22;;;;;;;;;;5091450;28;20062;-74
2020/12/21 04:07:49;;;;;;;74.40;50.03;;;;;;;;;;5091554;28;20506;-74
2020/12/21 04:10:53;;;;;;;69.68;48.80;;;;;;;;;;5091380;28;20502;-74
2020/12/21 04:13:57;;;;;;;65.13;44.75;;;;;;;;;;5091651;28;20047;-73
2020/12/21 04:17:02;;;;;;;68.97;46.53;;;;;;;;;;5090986;28;20059;-74
2020/12/21 04:20:06;;;;;;;64.35;46.20;;;;;;;;;;5090870;28;20039;-73
2020/12/21 04:23:10;;;;;;;67.60;46.22;;;;;;;;;;5091102;28;20055;-74
2020/12/21 04:26:14;;;;;;;63.35;43.13;;;;;;;;;;5091178;28;20035;-74
2020/12/21 04:29:19;;;;;;;60.63;42.45;;;;;;;;;;5090974;28;20043;-74
2020/12/21 04:32:23;;;;;;;64.95;42.05;;;;;;;;;;5091197;28;20039;-74
2020/12/21 04:35:27;;;;;;;64.20;42.80;;;;;;;;;;5091459;28;20050;-74
2020/12/21 04:38:33;;;;;;;67.80;46.88;;;;;;;;;;5091052;28;20059;-75
2020/12/21 04:41:37;;;;;;;77.68;48.78;;;;;;;;;;5091104;28;20047;-74
2020/12/21 04:44:42;;;;;;;73.68;46.58;;;;;;;;;;5093527;28;20047;-74
2020/12/21 04:47:47;;;;;;;67.13;42.42;;;;;;;;;;5095183;28;20046;-74
2020/12/21 04:50:54;;;;;;;71.38;46.10;;;;;;;;;;5094951;28;20399;-73
2020/12/21 04:53:59;;;;;;;69.90;47.35;;;;;;;;;;5095114;28;20590;-74
2020/12/21 04:57:03;;;;;;;65.60;45.63;;;;;;;;;;5094639;28;20407;-74
2020/12/21 05:00:08;;;;;;;79.97;52.67;;;;;;;;;;5094744;28;20055;-74
2020/12/21 05:03:12;;;;;;;76.65;50.58;;;;;;;;;;5094998;28;20043;-74
2020/12/21 05:06:16;;;;;;;83.43;52.72;;;;;;;;;;5094639;28;20043;-74
2020/12/21 05:09:22;;;;;;;84.90;51.60;;;;;;;;;;5094763;28;20388;-74
2020/12/21 05:12:27;;;;;;;81.82;51.10;;;;;;;;;;5094655;28;20191;-74
2020/12/21 05:15:31;;;;;;;79.90;52.38;;;;;;;;;;5094471;28;20043;-74
2020/12/21 05:18:35;;;;;;;70.30;46.65;;;;;;;;;;5094447;28;20043;-75
2020/12/21 05:21:41;;;;;;;66.47;43.88;;;;;;;;;;5094138;28;20415;-74
2020/12/21 05:24:45;;;;;;;69.22;43.85;;;;;;;;;;5094643;28;20047;-75
2020/12/21 05:27:50;;;;;;;73.35;45.80;;;;;;;;;;5094387;28;20430;-75
2020/12/21 05:30:56;;;;;;;67.00;42.13;;;;;;;;;;5094149;28;20044;-75
2020/12/21 05:34:00;;;;;;;69.25;42.58;;;;;;;;;;5094270;28;20055;-75
2020/12/21 05:37:13;;;;;;;66.28;41.88;;;;;;;;;;5093978;28;20399;-74
2020/12/21 05:40:17;;;;;;;71.05;42.05;;;;;;;;;;5081823;28;20043;-74
2020/12/21 05:43:26;;;;;;;69.72;41.38;;;;;;;;;;5094436;28;20051;-73
2020/12/21 05:46:31;;;;;;;62.10;40.53;;;;;;;;;;5093963;28;20039;-74
2020/12/21 05:49:37;;;;;;;65.13;40.72;;;;;;;;;;5094033;28;20043;-74
2020/12/21 05:52:42;;;;;;;62.42;38.85;;;;;;;;;;5093944;28;20055;-74
2020/12/21 05:55:47;;;;;;;76.95;43.72;;;;;;;;;;5092964;28;20051;-74
2020/12/21 05:58:53;;;;;;;71.75;40.97;;;;;;;;;;5081146;28;20047;-74
2020/12/21 06:02:00;;;;;;;65.93;40.58;;;;;;;;;;5081258;28;20040;-74
2020/12/21 06:05:05;;;;;;;67.93;42.17;;;;;;;;;;5093553;28;20514;-75
2020/12/21 06:08:12;;;;;;;73.53;43.90;;;;;;;;;;5093621;28;20047;-73
2020/12/21 06:11:17;;;;;;;72.28;43.03;;;;;;;;;;5093939;28;20055;-74
2020/12/21 06:14:22;;;;;;;70.35;40.92;;;;;;;;;;5093520;28;20158;-74
2020/12/21 06:17:26;;;;;;;66.32;43.47;;;;;;;;;;5093270;28;20050;-74
2020/12/21 06:20:30;;;;;;;68.00;44.03;;;;;;;;;;5093267;28;20047;-72
2020/12/21 06:23:39;;;;;;;67.50;44.50;;;;;;;;;;5093411;28;20039;-72
2020/12/21 06:26:43;;;;;;;68.50;44.53;;;;;;;;;;5093417;28;20043;-73
2020/12/21 06:29:57;;;;;;;74.53;45.08;;;;;;;;;;5080820;28;20097;-72
2020/12/21 06:33:02;;;;;;;81.32;46.00;;;;;;;;;;5092907;28;20047;-73
2020/12/21 06:36:07;;;;;;;61.33;40.25;;;;;;;;;;5092699;28;20053;-75
2020/12/21 06:39:22;;;;;;;70.80;41.17;;;;;;;;;;5092929;28;20047;-74
2020/12/21 06:42:26;;;;;;;58.88;37.15;;;;;;;;;;5092924;28;20047;-75
2020/12/21 06:45:39;;;;;;;64.63;37.42;;;;;;;;;;5092784;28;20043;-76
2020/12/21 06:48:44;;;;;;;68.72;37.30;;;;;;;;;;5092752;28;20047;-73
2020/12/21 06:51:48;;;;;;;131.35;74.65;;;;;;;;;;5092980;28;20038;-73
2020/12/21 06:54:53;;;;;;;56.20;35.72;;;;;;;;;;5092759;28;20035;-75
2020/12/21 06:57:57;;;;;;;66.30;35.78;;;;;;;;;;5092709;28;20050;-75
2020/12/21 07:01:02;;;;;;;57.78;35.03;;;;;;;;;;5092491;28;20498;-75
2020/12/21 07:04:10;;;;;;;61.83;36.17;;;;;;;;;;5092571;28;20399;-74
2020/12/21 07:07:17;;;;;;;67.97;36.22;;;;;;;;;;5092372;28;20039;-72
2020/12/21 07:10:21;;;;;;;68.68;37.03;;;;;;;;;;5092378;28;20505;-75
2020/12/21 07:13:26;;;;;;;161.77;96.85;;;;;;;;;;5092132;28;20039;-76
2020/12/21 07:16:30;;;;;;;78.88;50.67;;;;;;;;;;5091406;28;20494;-78
2020/12/21 07:19:35;;;;;;;76.75;44.92;;;;;;;;;;5092049;28;20040;-75
2020/12/21 07:22:41;;;;;;;90.53;52.55;;;;;;;;;;5052113;28;20475;-79
2020/12/21 07:25:50;;;;;;;92.70;56.35;;;;;;;;;;5051656;28;20044;-83
2020/12/21 07:28:54;;;;;;;82.40;44.70;;;;;;;;;;5049567;28;20056;-80
2020/12/21 07:31:59;;;;;;;82.05;43.90;;;;;;;;;;5049940;28;20393;-79
2020/12/21 07:35:05;;;;;;;133.65;71.30;;;;;;;;;;5051121;28;20399;-79
2020/12/21 07:38:12;;;;;;;158.45;84.70;;;;;;;;;;5051698;28;20060;-77
2020/12/21 07:41:17;;;;;;;140.63;71.40;;;;;;;;;;5050927;28;20516;-79
2020/12/21 07:44:24;;;;;;;130.93;73.20;;;;;;;;;;5051411;28;20062;-77
2020/12/21 07:47:30;;;;;;;145.05;75.97;;;;;;;;;;5051207;28;20040;-71
2020/12/21 07:50:35;;;;;;;136.50;74.88;;;;;;;;;;5050340;28;20048;-73
2020/12/21 07:53:43;;;;;;;138.05;70.85;;;;;;;;;;5051264;28;20044;-73
2020/12/21 07:56:47;;;;;;;119.63;68.32;;;;;;;;;;5050024;28;20063;-80
2020/12/21 07:59:55;;;;;;;131.90;71.85;;;;;;;;;;5051691;28;20056;-78
2020/12/21 08:03:01;;;;;;;121.82;70.65;;;;;;;;;;5051243;28;20055;-73
2020/12/21 08:06:10;;;;;;;113.68;63.75;;;;;;;;;;5051487;28;20061;-74
2020/12/21 08:09:15;;;;;;;128.63;68.32;;;;;;;;;;5051127;28;20044;-76
2020/12/21 08:12:19;;;;;;;127.57;71.15;;;;;;;;;;5051231;28;20043;-81
2020/12/21 08:15:23;;;;;;;123.75;68.55;;;;;;;;;;5051100;28;20040;-79
2020/12/21 08:18:27;;;;;;;123.28;70.55;;;;;;;;;;5051048;28;20052;-76
2020/12/21 08:21:32;;;;;;;127.55;70.63;;;;;;;;;;5064581;28;20503;-75
2020/12/21 08:24:36;;;;;;;114.15;69.43;;;;;;;;;;5070470;28;20047;-74
2020/12/21 08:27:48;;;;;;;120.60;68.15;;;;;;;;;;5070741;28;20098;-72
2020/12/21 08:31:06;;;;;;;113.35;69.38;;;;;;;;;;5069951;28;20102;-77
2020/12/21 08:34:14;;;;;;;109.72;69.00;;;;;;;;;;5070859;28;20052;-77
2020/12/21 08:37:23;;;;;;;111.97;69.53;;;;;;;;;;5070622;28;20047;-78
2020/12/21 08:40:28;;;;;;;122.95;71.18;;;;;;;;;;5070536;28;20040;-76
2020/12/21 08:43:32;;;;;;;102.00;62.75;;;;;;;;;;5070581;28;20051;-73
2020/12/21 08:46:40;;;;;;;107.28;63.65;;;;;;;;;;5070857;28;20048;-74
2020/12/21 08:49:44;;;;;;;103.35;62.80;;;;;;;;;;5070991;28;20044;-74
2020/12/21 08:52:49;;;;;;;102.53;59.65;;;;;;;;;;5070885;28;20067;-78
2020/12/21 08:55:53;;;;;;;91.22;59.25;;;;;;;;;;5070392;28;20218;-76
2020/12/21 08:58:58;;;;;;;101.22;62.65;;;;;;;;;;5070937;28;20051;-78
2020/12/21 09:02:02;;;;;;;96.85;62.58;;;;;;;;;;5070682;28;20044;-73
2020/12/21 09:05:07;;;;;;;101.65;63.78;;;;;;;;;;5070540;28;20051;-73
2020/12/21 09:08:11;;;;;;;108.55;66.97;;;;;;;;;;5070290;28;20044;-72
2020/12/21 09:11:19;;;;;;;106.03;69.03;;;;;;;;;;5070346;28;20056;-78
2020/12/21 09:14:27;;;;;;;114.10;71.03;;;;;;;;;;5070340;28;20059;-78
2020/12/21 09:17:31;;;;;;;112.20;74.22;;;;;;;;;;5070091;28;20051;-77
2020/12/21 09:20:36;;;;;;;112.43;75.13;;;;;;;;;;5077007;28;20411;-79
2020/12/21 09:23:40;;;;;;;118.03;73.97;;;;;;;;;;5090590;28;20055;-79
2020/12/21 09:26:45;;;;;;;115.28;76.00;;;;;;;;;;5090498;28;20051;-77
2020/12/21 09:29:49;;;;;;;118.30;76.03;;;;;;;;;;5090728;28;20050;-74
2020/12/21 09:32:53;;;;;;;107.13;73.97;;;;;;;;;;5094237;28;20391;-76
2020/12/21 09:35:58;;;;;;;97.40;66.10;;;;;;;;;;5093709;28;20055;-77
2020/12/21 09:39:03;;;;;;;95.97;59.97;;;;;;;;;;5093654;28;20039;-77
2020/12/21 09:42:07;;;;;;;89.80;55.60;;;;;;;;;;5093622;28;20408;-79
2020/12/21 09:45:11;;;;;;;91.35;52.22;;;;;;;;;;5094127;28;20046;-83
2020/12/21 09:48:16;;;;;;;80.43;56.92;;;;;;;;;;5093568;28;20039;-82
2020/12/21 09:51:23;;;;;;;88.95;59.88;;;;;;;;;;5093571;28;20043;-77
2020/12/21 09:54:30;;;;;;;86.40;55.78;;;;;;;;;;5093878;28;20499;-77
2020/12/21 09:57:34;;;;;;;82.68;53.95;;;;;;;;;;5093372;28;20051;-82
2020/12/21 10:00:38;;;;;;;97.78;60.63;;;;;;;;;;5093703;28;20043;-75
2020/12/21 10:03:43;;;;;;;89.63;57.42;;;;;;;;;;5092973;28;20047;-73
2020/12/21 10:06:50;;;;;;;83.53;57.72;;;;;;;;;;5093287;28;20490;-73
2020/12/21 10:09:55;;;;;;;82.30;53.72;;;;;;;;;;5092998;28;20051;-75
2020/12/21 10:12:59;;;;;;;85.43;54.33;;;;;;;;;;5093104;28;20035;-77
2020/12/21 10:16:03;;;;;;;80.30;54.25;;;;;;;;;;5080908;28;20043;-74
2020/12/21 10:19:08;;;;;;;81.78;51.88;;;;;;;;;;5092976;28;20047;-74
2020/12/21 10:22:12;;;;;;;84.20;50.83;;;;;;;;;;5092620;28;20047;-74
2020/12/21 10:25:16;;;;;;;70.28;48.33;;;;;;;;;;5092606;28;20039;-75
2020/12/21 10:28:21;;;;;;;61.78;42.58;;;;;;;;;;5092572;28;20043;-71
2020/12/21 10:31:29;;;;;;;61.42;41.30;;;;;;;;;;5092912;28;20047;-75
2020/12/21 10:34:34;;;;;;;54.65;36.38;;;;;;;;;;5092456;28;20503;-79
2020/12/21 10:37:39;;;;;;;56.50;36.38;;;;;;;;;;5080076;28;20055;-79
2020/12/21 10:40:43;;;;;;;46.88;33.55;;;;;;;;;;5092707;28;20059;-80
2020/12/21 10:43:47;;;;;;;44.83;32.85;;;;;;;;;;5093101;28;20062;-75
2020/12/21 10:46:52;;;;;;;56.47;32.65;;;;;;;;;;5092490;28;20058;-76
2020/12/21 10:49:56;;;;;;;44.85;30.80;;;;;;;;;;5092644;28;20035;-74
2020/12/21 10:53:00;;;;;;;42.72;31.02;;;;;;;;;;5092267;28;20043;-73
2020/12/21 10:56:05;;;;;;;42.55;29.77;;;;;;;;;;5092290;28;20040;-76
2020/12/21 10:59:09;;;;;;;46.28;29.15;;;;;;;;;;5092548;28;20063;-77
2020/12/21 11:02:13;;;;;;;40.35;26.40;;;;;;;;;;5092593;28;20042;-78
2020/12/21 11:05:18;;;;;;;33.63;24.17;;;;;;;;;;5092842;28;20047;-82
2020/12/21 11:08:22;;;;;;;37.45;26.30;;;;;;;;;;5079832;28;20047;-78
2020/12/21 11:11:27;;;;;;;29.10;21.55;;;;;;;;;;5092457;28;20355;-78
2020/12/21 11:14:31;;;;;;;29.58;19.55;;;;;;;;;;5092878;28;20050;-85
2020/12/21 11:17:35;;;;;;;26.42;18.92;;;;;;;;;;5092347;28;20059;-84
2020/12/21 11:20:40;;;;;;;29.00;19.55;;;;;;;;;;5092003;28;20047;-77
2020/12/21 11:23:44;;;;;;;25.23;17.23;;;;;;;;;;5092382;28;20132;-81
2020/12/21 11:26:52;;;;;;;22.90;16.73;;;;;;;;;;5092525;28;20286;-77
2020/12/21 11:29:56;;;;;;;24.52;17.80;;;;;;;;;;5092686;28;20047;-78
2020/12/21 11:33:00;;;;;;;22.10;16.00;;;;;;;;;;5091485;28;20514;-79
2020/12/21 11:36:04;;;;;;;24.35;16.30;;;;;;;;;;5091555;28;20043;-73
2020/12/21 11:39:09;;;;;;;51.53;35.05;;;;;;;;;;5091520;28;20218;-79
2020/12/21 11:42:13;;;;;;;37.30;25.85;;;;;;;;;;5091634;28;20039;-74
2020/12/21 11:45:18;;;;;;;36.53;21.40;;;;;;;;;;5091775;28;20055;-75
2020/12/21 11:48:22;;;;;;;32.47;19.15;;;;;;;;;;5091443;28;20058;-79
2020/12/21 11:51:26;;;;;;;31.88;20.20;;;;;;;;;;5078863;28;20222;-81
2020/12/21 11:54:31;;;;;;;28.58;18.85;;;;;;;;;;5090886;28;20479;-75
2020/12/21 11:57:36;;;;;;;26.75;18.88;;;;;;;;;;5090828;28;20423;-72
2020/12/21 12:00:40;;;;;;;30.55;18.02;;;;;;;;;;5090192;28;20043;-71
2020/12/21 12:03:45;;;;;;;28.05;20.30;;;;;;;;;;5089766;28;20043;-71
2020/12/21 12:06:52;;;;;;;22.95;16.65;;;;;;;;;;5091126;28;20074;-74
2020/12/21 12:09:56;;;;;;;52.17;35.20;;;;;;;;;;5091087;28;20491;-76
2020/12/21 12:13:01;;;;;;;31.92;21.23;;;;;;;;;;5091493;28;20387;-76
2020/12/21 12:16:05;;;;;;;22.42;15.40;;;;;;;;;;5091375;28;20047;-75
2020/12/21 12:19:10;;;;;;;19.67;13.55;;;;;;;;;;5091352;28;20051;-77
2020/12/21 12:22:14;;;;;;;25.33;14.35;;;;;;;;;;5091144;28;20047;-76
2020/12/21 12:25:19;;;;;;;22.42;14.13;;;;;;;;;;5090759;28;20500;-77
2020/12/21 12:28:23;;;;;;;25.58;14.93;;;;;;;;;;5091181;28;20039;-76
2020/12/21 12:31:28;;;;;;;23.42;15.10;;;;;;;;;;5091208;28;20043;-76
2020/12/21 12:34:32;;;;;;;21.52;14.23;;;;;;;;;;5091328;28;20400;-74
2020/12/21 12:37:36;;;;;;;19.38;12.77;;;;;;;;;;5090738;28;20272;-80
2020/12/21 12:40:41;;;;;;;55.47;36.45;;;;;;;;;;5090932;28;20031;-73
2020/12/21 12:43:45;;;;;;;28.48;18.23;;;;;;;;;;5090978;28;20047;-79
2020/12/21 12:46:49;;;;;;;96.00;73.60;;;;;;;;;;5090905;28;20039;-78
2020/12/21 12:49:54;;;;;;;73.00;52.35;;;;;;;;;;5090901;28;20055;-75
2020/12/21 12:52:59;;;;;;;29.17;20.50;;;;;;;;;;5090689;28;20043;-77
2020/12/21 12:56:06;;;;;;;34.35;25.55;;;;;;;;;;5090919;28;20051;-74
2020/12/21 12:59:10;;;;;;;104.78;73.03;;;;;;;;;;5090742;28;20055;-83
2020/12/21 13:02:15;;;;;;;38.05;27.77;;;;;;;;;;5091075;28;20043;-81
2020/12/21 13:05:19;;;;;;;23.05;14.43;;;;;;;;;;5092258;28;20106;-81
2020/12/21 13:08:23;;;;;;;18.25;12.57;;;;;;;;;;5095125;28;20039;-76
2020/12/21 13:11:28;;;;;;;14.63;10.85;;;;;;;;;;5081981;28;20043;-76
2020/12/21 13:14:32;;;;;;;16.45;11.20;;;;;;;;;;5094540;28;20046;-76
2020/12/21 13:17:36;;;;;;;20.50;12.98;;;;;;;;;;5094399;28;20409;-79
2020/12/21 13:20:41;;;;;;;20.02;11.73;;;;;;;;;;5094138;28;20467;-75
2020/12/21 13:23:46;;;;;;;16.63;11.43;;;;;;;;;;5094390;28;20047;-76
2020/12/21 13:26:51;;;;;;;14.63;9.93;;;;;;;;;;5094374;28;20055;-77
2020/12/21 13:29:55;;;;;;;14.73;9.85;;;;;;;;;;5094741;28;20028;-83
2020/12/21 13:32:59;;;;;;;13.23;9.77;;;;;;;;;;5093645;28;20039;-77
2020/12/21 13:36:04;;;;;;;16.30;10.77;;;;;;;;;;5092720;28;20028;-82
2020/12/21 13:39:08;;;;;;;19.67;10.63;;;;;;;;;;5094255;28;20051;-74
2020/12/21 13:42:12;;;;;;;18.42;10.65;;;;;;;;;;5093961;28;20098;-73
2020/12/21 13:45:16;;;;;;;18.95;11.02;;;;;;;;;;5093923;28;20043;-73
2020/12/21 13:48:21;;;;;;;17.35;11.93;;;;;;;;;;5093750;28;20047;-79
2020/12/21 13:51:26;;;;;;;18.67;9.90;;;;;;;;;;5093771;28;20506;-77
2020/12/21 13:54:31;;;;;;;20.10;11.57;;;;;;;;;;5093997;28;20044;-73
2020/12/21 13:57:35;;;;;;;16.58;11.13;;;;;;;;;;5093686;28;20047;-72
2020/12/21 14:00:40;;;;;;;16.08;11.02;;;;;;;;;;5093631;28;20043;-71
2020/12/21 14:03:44;;;;;;;15.95;10.95;;;;;;;;;;5081129;28;20498;-73
2020/12/21 14:06:48;;;;;;;41.30;27.58;;;;;;;;;;5093514;28;20046;-75
2020/12/21 14:09:53;;;;;;;32.03;21.73;;;;;;;;;;5093250;28;20043;-72
2020/12/21 14:12:57;;;;;;;23.58;15.63;;;;;;;;;;5093698;28;20498;-73
2020/12/21 14:16:15;;;;;;;20.95;13.77;;;;;;;;;;5093670;28;20070;-76
2020/12/21 14:19:19;;;;;;;19.02;12.25;;;;;;;;;;5093643;28;20047;-72
2020/12/21 14:22:23;;;;;;;15.70;12.18;;;;;;;;;;5093188;28;20055;-74
2020/12/21 14:25:28;;;;;;;17.38;12.20;;;;;;;;;;5092530;28;20043;-70
2020/12/21 14:28:32;;;;;;;21.02;13.45;;;;;;;;;;5093427;28;20531;-70
2020/12/21 14:31:37;;;;;;;250.90;174.05;;;;;;;;;;5093573;28;20050;-70
2020/12/21 14:34:42;;;;;;;187.57;131.07;;;;;;;;;;5080835;28;20513;-70
2020/12/21 14:37:47;;;;;;;102.80;68.22;;;;;;;;;;5092966;28;20054;-70
2020/12/21 14:40:51;;;;;;;49.22;34.15;;;;;;;;;;5093127;28;20039;-74
2020/12/21 14:43:59;;;;;;;32.25;20.80;;;;;;;;;;5093055;28;20049;-78
2020/12/21 14:47:03;;;;;;;29.00;17.25;;;;;;;;;;5092769;28;20054;-79
2020/12/21 14:50:07;;;;;;;28.85;17.00;;;;;;;;;;5092958;28;20047;-79
2020/12/21 14:53:12;;;;;;;24.52;16.95;;;;;;;;;;5092907;28;20051;-75
2020/12/21 14:56:16;;;;;;;25.60;15.93;;;;;;;;;;5092681;28;20055;-73
2020/12/21 14:59:21;;;;;;;40.88;26.65;;;;;;;;;;5092830;28;20502;-77
2020/12/21 15:02:25;;;;;;;40.80;29.35;;;;;;;;;;5092544;28;20054;-73
2020/12/21 15:05:29;;;;;;;40.40;27.17;;;;;;;;;;5092639;28;20047;-75
2020/12/21 15:08:33;;;;;;;30.77;22.48;;;;;;;;;;5092620;28;20039;-77
2020/12/21 15:11:38;;;;;;;35.50;18.75;;;;;;;;;;5080006;28;20055;-78
2020/12/21 15:14:42;;;;;;;26.55;16.85;;;;;;;;;;5092238;28;20050;-77
2020/12/21 15:17:47;;;;;;;27.42;16.52;;;;;;;;;;5092221;28;20047;-82
2020/12/21 15:20:52;;;;;;;37.83;18.88;;;;;;;;;;5092152;28;20510;-77
2020/12/21 15:23:56;;;;;;;26.48;16.95;;;;;;;;;;5092397;28;20530;-72
2020/12/21 15:27:00;;;;;;;54.10;39.25;;;;;;;;;;5092221;28;20047;-74
2020/12/21 15:30:04;;;;;;;130.18;80.60;;;;;;;;;;5091502;28;20063;-71
2020/12/21 15:33:09;;;;;;;71.85;45.03;;;;;;;;;;5091955;28;20114;-70
2020/12/21 15:36:14;;;;;;;56.58;36.20;;;;;;;;;;5091930;28;20071;-72
2020/12/21 15:39:18;;;;;;;92.15;44.85;;;;;;;;;;5091830;28;20051;-70
2020/12/21 15:42:22;;;;;;;90.75;34.10;;;;;;;;;;5091863;28;20043;-71
2020/12/21 15:45:27;;;;;;;85.00;28.98;;;;;;;;;;5092110;28;20050;-71
2020/12/21 15:48:31;;;;;;;91.35;30.55;;;;;;;;;;5091528;28;20047;-71
2020/12/21 15:51:35;;;;;;;77.00;27.55;;;;;;;;;;5091760;28;20050;-72
2020/12/21 15:54:40;;;;;;;83.15;33.28;;;;;;;;;;5091652;28;20047;-69
2020/12/21 15:57:45;;;;;;;71.53;27.73;;;;;;;;;;5091334;28;20055;-70
2020/12/21 16:00:50;;;;;;;64.28;27.83;;;;;;;;;;5091120;28;20043;-70
2020/12/21 16:03:54;;;;;;;53.42;25.58;;;;;;;;;;5091239;28;20038;-70
2020/12/21 16:06:58;;;;;;;64.90;35.13;;;;;;;;;;5091045;28;20395;-73
2020/12/21 16:10:04;;;;;;;71.53;43.88;;;;;;;;;;5091394;28;20051;-70
2020/12/21 16:13:08;;;;;;;72.97;25.55;;;;;;;;;;5091342;28;20066;-69
2020/12/21 16:16:12;;;;;;;78.90;29.48;;;;;;;;;;5090660;28;20047;-69
2020/12/21 16:19:17;;;;;;;88.43;31.52;;;;;;;;;;5091070;28;20415;-69
2020/12/21 16:22:21;;;;;;;82.25;31.80;;;;;;;;;;5090969;28;20055;-69
2020/12/21 16:25:25;;;;;;;90.10;37.28;;;;;;;;;;5090681;28;20039;-69
2020/12/21 16:28:29;;;;;;;89.25;43.83;;;;;;;;;;5090877;28;20502;-68
2020/12/21 16:31:34;;;;;;;94.55;48.65;;;;;;;;;;5091077;28;20150;-68
2020/12/21 16:34:38;;;;;;;76.20;31.40;;;;;;;;;;5090465;28;20506;-69
2020/12/21 16:37:43;;;;;;;75.00;32.25;;;;;;;;;;5090593;28;20047;-68
2020/12/21 16:40:47;;;;;;;112.82;35.88;;;;;;;;;;5093399;28;20506;-69
2020/12/21 16:43:52;;;;;;;89.22;38.50;;;;;;;;;;5082502;28;20055;-69
2020/12/21 16:46:56;;;;;;;82.10;38.92;;;;;;;;;;5094666;28;20510;-69
2020/12/21 16:50:00;;;;;;;86.13;41.72;;;;;;;;;;5094504;28;20387;-69
2020/12/21 16:53:04;;;;;;;81.78;44.50;;;;;;;;;;5095050;28;20051;-69
2020/12/21 16:56:09;;;;;;;111.72;44.17;;;;;;;;;;5094809;28;20043;-69
2020/12/21 16:59:14;;;;;;;89.78;47.53;;;;;;;;;;5094371;28;20202;-69
2020/12/21 17:02:18;;;;;;;104.82;55.53;;;;;;;;;;5094683;28;20039;-68
2020/12/21 17:05:23;;;;;;;116.60;58.85;;;;;;;;;;5094509;28;20589;-68
2020/12/21 17:08:27;;;;;;;98.70;49.95;;;;;;;;;;5094328;28;20039;-69
2020/12/21 17:11:32;;;;;;;111.80;51.60;;;;;;;;;;5095655;28;20046;-69
2020/12/21 17:14:37;;;;;;;110.72;52.58;;;;;;;;;;5094641;28;20506;-76
2020/12/21 17:17:41;;;;;;;109.70;50.28;;;;;;;;;;5094189;28;20070;-73
2020/12/21 17:20:46;;;;;;;99.60;52.38;;;;;;;;;;5094228;28;20060;-73
2020/12/21 17:23:50;;;;;;;100.55;55.35;;;;;;;;;;5095546;28;20063;-72
2020/12/21 17:26:55;;;;;;;100.75;54.05;;;;;;;;;;5092869;28;20044;-72
2020/12/21 17:29:59;;;;;;;105.40;52.53;;;;;;;;;;5093572;28;20043;-72
2020/12/21 17:33:03;;;;;;;100.55;53.28;;;;;;;;;;5094093;28;20043;-73
2020/12/21 17:36:08;;;;;;;99.70;53.05;;;;;;;;;;5094236;28;20043;-72
2020/12/21 17:39:13;;;;;;;103.35;53.15;;;;;;;;;;5094009;28;20058;-72
2020/12/21 17:42:18;;;;;;;101.38;54.13;;;;;;;;;;5094048;28;20047;-72
2020/12/21 17:45:22;;;;;;;116.35;57.20;;;;;;;;;;5093710;28;20067;-69
2020/12/21 17:48:28;;;;;;;106.75;58.35;;;;;;;;;;5093881;28;20051;-71
2020/12/21 17:51:32;;;;;;;117.82;59.15;;;;;;;;;;5092486;28;20055;-68